createdAt,value
2018-03-21T00:00:48.067Z,75.29
2018-03-21T00:03:52.121Z,75.46
2018-03-21T00:06:55.398Z,75.63
2018-03-21T00:09:58.690Z,75.84
2018-03-21T00:13:01.961Z,75.91
2018-03-21T00:16:06.176Z,75.58
2018-03-21T00:19:10.378Z,75.69
2018-03-21T00:22:13.647Z,75.74
2018-03-21T00:25:16.955Z,76.00
2018-03-21T00:28:20.226Z,76.08
2018-03-21T00:31:23.512Z,76.12
2018-03-21T00:34:26.808Z,76.08
2018-03-21T00:37:30.077Z,75.95
2018-03-21T00:40:34.147Z,76.35
2018-03-21T00:43:37.640Z,75.66
2018-03-21T00:46:40.929Z,76.58
2018-03-21T00:49:44.229Z,76.26
2018-03-21T00:52:47.518Z,76.65
2018-03-21T00:55:50.812Z,76.47
2018-03-21T00:58:54.112Z,76.36
2018-03-21T01:01:57.418Z,76.35
2018-03-21T01:05:00.699Z,76.74
2018-03-21T01:08:04.002Z,76.64
2018-03-21T01:11:07.291Z,76.43
2018-03-21T01:14:10.611Z,76.76
2018-03-21T01:17:13.866Z,76.47
2018-03-21T01:20:18.009Z,76.72
2018-03-21T01:23:21.273Z,77.05
2018-03-21T01:26:24.570Z,77.72
2018-03-21T01:29:28.689Z,76.75
2018-03-21T01:32:32.733Z,76.88
2018-03-21T01:35:36.043Z,77.06
2018-03-21T01:38:40.354Z,76.94
2018-03-21T01:41:43.636Z,77.17
2018-03-21T01:44:47.681Z,77.48
2018-03-21T01:47:50.978Z,77.15
2018-03-21T01:50:54.367Z,78.65
2018-03-21T01:53:57.660Z,79.11
2018-03-21T01:57:01.033Z,79.60
2018-03-21T02:00:05.799Z,79.43
2018-03-21T02:03:09.900Z,79.81
2018-03-21T02:06:13.944Z,80.15
2018-03-21T02:09:17.214Z,80.39
2018-03-21T02:12:20.509Z,80.56
2018-03-21T02:15:24.560Z,81.66
2018-03-21T02:18:27.989Z,81.79
2018-03-21T02:21:31.438Z,81.65
2018-03-21T02:24:34.744Z,81.68
2018-03-21T02:27:38.033Z,81.32
2018-03-21T02:30:41.330Z,80.86
2018-03-21T02:33:44.623Z,81.71
2018-03-21T02:36:48.033Z,80.92
2018-03-21T02:39:51.379Z,80.43
2018-03-21T02:42:55.744Z,80.62
2018-03-21T02:46:00.028Z,81.33
2018-03-21T02:49:03.302Z,81.78
2018-03-21T02:52:06.578Z,81.50
2018-03-21T02:55:09.870Z,81.41
2018-03-21T02:58:13.133Z,82.04
2018-03-21T03:01:16.578Z,81.72
2018-03-21T03:04:20.152Z,82.17
2018-03-21T03:07:23.438Z,82.02
2018-03-21T03:10:26.750Z,81.66
2018-03-21T03:13:30.026Z,81.91
2018-03-21T03:16:33.377Z,81.88
2018-03-21T03:19:36.666Z,81.65
2018-03-21T03:22:39.955Z,81.39
2018-03-21T03:25:43.361Z,81.23
2018-03-21T03:28:46.639Z,82.07
2018-03-21T03:31:50.690Z,81.71
2018-03-21T03:34:53.971Z,82.54
2018-03-21T03:38:12.167Z,83.37
2018-03-21T03:41:16.438Z,83.67
2018-03-21T03:44:19.732Z,83.49
2018-03-21T03:47:23.020Z,83.29
2018-03-21T03:50:26.317Z,83.46
2018-03-21T03:53:30.614Z,83.47
2018-03-21T03:56:34.677Z,83.87
2018-03-21T03:59:37.949Z,84.42
2018-03-21T04:02:41.243Z,83.75
2018-03-21T04:05:45.280Z,83.32
2018-03-21T04:08:48.555Z,82.45
2018-03-21T04:11:52.597Z,82.30
2018-03-21T04:14:55.992Z,81.95
2018-03-21T04:17:59.266Z,81.78
2018-03-21T04:21:05.553Z,82.19
2018-03-21T04:24:08.820Z,82.30
2018-03-21T04:27:12.865Z,82.75
2018-03-21T04:30:16.197Z,82.88
2018-03-21T04:33:19.482Z,83.41
2018-03-21T04:36:22.770Z,82.95
2018-03-21T04:39:26.761Z,82.93
2018-03-21T04:42:30.047Z,82.71
2018-03-21T04:45:34.111Z,83.25
2018-03-21T04:48:37.384Z,83.40
2018-03-21T04:51:42.694Z,83.29
2018-03-21T04:54:46.074Z,83.02
2018-03-21T04:57:49.377Z,82.99
2018-03-21T05:00:53.469Z,82.73
2018-03-21T05:03:56.755Z,82.98
2018-03-21T05:07:00.244Z,83.11
2018-03-21T05:10:04.053Z,83.58
2018-03-21T05:13:07.358Z,84.03
2018-03-21T05:16:10.658Z,84.40
2018-03-21T05:19:13.930Z,84.76
2018-03-21T05:22:17.987Z,85.13
2018-03-21T05:25:21.345Z,85.14
2018-03-21T05:28:25.894Z,85.01
2018-03-21T05:31:30.755Z,84.77
2018-03-21T05:34:34.119Z,84.48
2018-03-21T05:37:38.197Z,84.54
2018-03-21T05:40:41.481Z,84.55
2018-03-21T05:43:44.795Z,84.64
2018-03-21T05:46:48.149Z,84.63
2018-03-21T05:49:52.218Z,84.43
2018-03-21T05:52:56.574Z,84.11
2018-03-21T05:55:59.870Z,84.23
2018-03-21T05:59:03.310Z,84.16
2018-03-21T06:02:06.617Z,83.99
2018-03-21T06:05:09.888Z,83.32
2018-03-21T06:08:13.181Z,83.15
2018-03-21T06:11:16.498Z,82.95
2018-03-21T06:14:19.870Z,82.89
2018-03-21T06:17:23.992Z,82.57
2018-03-21T06:20:27.281Z,82.36
2018-03-21T06:23:31.362Z,82.49
2018-03-21T06:26:34.804Z,82.02
2018-03-21T06:29:38.099Z,82.27
2018-03-21T06:32:41.462Z,81.92
2018-03-21T06:35:44.758Z,82.23
2018-03-21T06:38:48.033Z,81.72
2018-03-21T06:41:51.345Z,81.15
2018-03-21T06:44:54.632Z,81.62
2018-03-21T06:47:58.392Z,81.47
2018-03-21T06:51:02.437Z,81.54
2018-03-21T06:54:05.738Z,81.39
2018-03-21T06:57:09.030Z,80.80
2018-03-21T07:00:12.403Z,80.88
2018-03-21T07:03:15.692Z,80.39
2018-03-21T07:06:19.997Z,80.18
2018-03-21T07:09:24.051Z,80.04
2018-03-21T07:12:27.345Z,79.99
2018-03-21T07:15:48.633Z,79.65
2018-03-21T07:18:52.682Z,79.19
2018-03-21T07:21:56.113Z,79.61
2018-03-21T07:24:59.405Z,79.67
2018-03-21T07:28:02.894Z,79.11
2018-03-21T07:31:06.295Z,78.97
2018-03-21T07:34:09.664Z,78.45
2018-03-21T07:37:12.978Z,78.42
2018-03-21T07:40:16.268Z,78.73
2018-03-21T07:43:19.546Z,78.19
2018-03-21T07:46:22.973Z,77.88
2018-03-21T07:49:28.398Z,78.32
2018-03-21T07:52:32.447Z,77.36
2018-03-21T07:55:35.733Z,75.15
2018-03-21T07:58:39.007Z,75.02
2018-03-21T08:01:43.050Z,73.41
2018-03-21T08:04:46.330Z,72.04
2018-03-21T08:07:49.618Z,71.17
2018-03-21T08:10:53.694Z,72.18
2018-03-21T08:13:56.974Z,73.53
2018-03-21T08:17:00.276Z,72.62
2018-03-21T08:20:03.582Z,73.92
2018-03-21T08:23:06.953Z,74.81
2018-03-21T08:26:10.234Z,74.43
2018-03-21T08:29:13.521Z,74.58
2018-03-21T08:32:17.818Z,75.13
2018-03-21T08:35:21.881Z,75.38
2018-03-21T08:38:25.173Z,74.55
2018-03-21T08:41:28.440Z,75.40
2018-03-21T08:44:31.779Z,75.26
2018-03-21T08:47:35.067Z,71.40
2018-03-21T08:50:38.328Z,69.82
2018-03-21T08:53:42.373Z,69.25
2018-03-21T08:56:45.963Z,68.02
2018-03-21T08:59:49.229Z,70.42
2018-03-21T09:02:52.499Z,69.35
2018-03-21T09:05:55.758Z,65.70
2018-03-21T09:08:59.796Z,66.05
2018-03-21T09:12:03.060Z,64.75
2018-03-21T09:15:07.103Z,64.26
2018-03-21T09:18:10.400Z,63.84
2018-03-21T09:21:13.661Z,63.71
2018-03-21T09:24:17.290Z,64.35
2018-03-21T09:27:21.334Z,64.06
2018-03-21T09:30:24.598Z,64.86
2018-03-21T09:33:28.632Z,64.08
2018-03-21T09:36:32.131Z,62.90
2018-03-21T09:39:35.402Z,61.39
2018-03-21T09:42:39.458Z,60.64
2018-03-21T09:45:42.717Z,61.11
2018-03-21T09:48:46.790Z,62.02
2018-03-21T09:51:50.379Z,62.04
2018-03-21T09:54:53.751Z,63.54
2018-03-21T09:57:57.027Z,63.48
2018-03-21T10:01:01.085Z,63.22
2018-03-21T10:04:04.342Z,63.67
2018-03-21T10:07:08.380Z,59.42
2018-03-21T10:10:11.658Z,60.18
2018-03-21T10:13:15.716Z,60.17
2018-03-21T10:16:18.980Z,59.18
2018-03-21T10:19:23.024Z,59.67
2018-03-21T10:22:26.384Z,58.99
2018-03-21T10:25:30.412Z,60.04
2018-03-21T10:28:34.552Z,58.82
2018-03-21T10:31:37.827Z,63.41
2018-03-21T10:34:41.107Z,65.62
2018-03-21T10:37:45.266Z,66.12
2018-03-21T10:40:48.525Z,66.04
2018-03-21T10:43:52.706Z,63.31
2018-03-21T10:46:55.996Z,62.22
2018-03-21T10:49:59.294Z,63.63
2018-03-21T10:53:02.579Z,62.42
2018-03-21T10:56:05.878Z,60.57
2018-03-21T10:59:09.203Z,61.24
2018-03-21T11:02:14.224Z,59.46
2018-03-21T11:05:22.221Z,59.17
2018-03-21T11:08:25.487Z,63.21
2018-03-21T11:11:28.766Z,62.66
2018-03-21T11:14:32.029Z,61.09
2018-03-21T11:17:35.409Z,61.44
2018-03-21T11:20:38.668Z,63.46
2018-03-21T11:23:42.722Z,62.34
2018-03-21T11:26:46.101Z,60.39
2018-03-21T11:29:49.904Z,61.07
2018-03-21T11:32:53.214Z,61.90
2018-03-21T11:35:56.492Z,61.44
2018-03-21T11:39:00.580Z,59.59
2018-03-21T11:42:03.842Z,59.97
2018-03-21T11:45:07.132Z,59.77
2018-03-21T11:48:10.506Z,57.74
2018-03-21T11:51:14.845Z,57.59
2018-03-21T11:54:18.072Z,57.11
2018-03-21T11:57:21.429Z,55.63
2018-03-21T12:00:24.709Z,54.57
2018-03-21T12:03:28.745Z,54.63
2018-03-21T12:06:32.001Z,56.00
2018-03-21T12:09:36.782Z,56.98
2018-03-21T12:12:40.080Z,55.84
2018-03-21T12:15:43.460Z,57.11
2018-03-21T12:18:47.497Z,56.20
2018-03-21T12:21:50.803Z,52.10
2018-03-21T12:24:54.102Z,48.55
2018-03-21T12:27:57.378Z,47.31
2018-03-21T12:31:00.676Z,49.11
2018-03-21T12:34:03.935Z,51.34
2018-03-21T12:37:07.896Z,53.78
2018-03-21T12:40:11.166Z,50.34
2018-03-21T12:43:15.225Z,52.02
2018-03-21T12:46:18.526Z,49.39
2018-03-21T12:49:21.816Z,44.11
2018-03-21T12:52:25.078Z,51.48
2018-03-21T12:55:29.106Z,49.29
2018-03-21T12:58:32.396Z,50.71
2018-03-21T13:01:35.668Z,55.07
2018-03-21T13:04:38.934Z,58.28
2018-03-21T13:07:42.321Z,56.78
2018-03-21T13:10:45.617Z,57.38
2018-03-21T13:13:48.896Z,58.06
2018-03-21T13:16:52.712Z,57.27
2018-03-21T13:20:11.568Z,58.08
2018-03-21T13:23:17.610Z,57.05
2018-03-21T13:26:21.778Z,55.94
2018-03-21T13:29:25.120Z,56.78
2018-03-21T13:32:28.519Z,55.26
2018-03-21T13:35:31.840Z,57.21
2018-03-21T13:38:35.088Z,57.72
2018-03-21T13:41:38.365Z,57.30
2018-03-21T13:44:41.645Z,55.56
2018-03-21T13:47:45.672Z,54.90
2018-03-21T13:50:49.735Z,56.22
2018-03-21T13:53:53.032Z,55.29
2018-03-21T13:56:56.294Z,52.67
2018-03-21T13:59:59.895Z,52.41
2018-03-21T14:03:03.193Z,52.23
2018-03-21T14:06:07.293Z,56.77
2018-03-21T14:09:10.582Z,57.02
2018-03-21T14:12:13.950Z,59.27
2018-03-21T14:15:17.241Z,58.42
2018-03-21T14:18:20.538Z,59.73
2018-03-21T14:21:23.921Z,58.36
2018-03-21T14:24:27.212Z,58.49
2018-03-21T14:27:31.598Z,57.43
2018-03-21T14:30:34.864Z,58.95
2018-03-21T14:33:38.437Z,58.52
2018-03-21T14:36:42.860Z,59.18
2018-03-21T14:39:46.880Z,57.63
2018-03-21T14:42:53.027Z,56.32
2018-03-21T14:45:56.347Z,56.39
2018-03-21T14:48:59.633Z,55.01
2018-03-21T14:52:02.931Z,56.21
2018-03-21T14:55:07.018Z,55.67
2018-03-21T14:58:10.281Z,53.93
2018-03-21T15:01:13.552Z,54.36
2018-03-21T15:04:17.621Z,54.20
2018-03-21T15:07:21.236Z,53.13
2018-03-21T15:10:24.554Z,50.97
2018-03-21T15:13:28.813Z,52.96
2018-03-21T15:16:32.225Z,53.52
2018-03-21T15:19:35.773Z,54.45
2018-03-21T15:22:39.029Z,53.38
2018-03-21T15:25:42.312Z,53.63
2018-03-21T15:28:45.582Z,52.92
2018-03-21T15:31:49.633Z,50.84
2018-03-21T15:34:52.999Z,53.63
2018-03-21T15:37:56.338Z,53.53
2018-03-21T15:40:59.641Z,54.55
2018-03-21T15:44:02.910Z,55.93
2018-03-21T15:47:06.193Z,53.77
2018-03-21T15:50:10.540Z,55.01
2018-03-21T15:53:13.944Z,58.51
2018-03-21T15:56:17.218Z,62.75
2018-03-21T15:59:20.558Z,63.29
2018-03-21T16:02:42.716Z,62.41
2018-03-21T16:05:47.417Z,63.50
2018-03-21T16:08:51.559Z,64.04
2018-03-21T16:11:54.844Z,64.19
2018-03-21T16:14:58.239Z,64.77
2018-03-21T16:18:01.550Z,63.69
2018-03-21T16:21:04.825Z,63.80
2018-03-21T16:24:08.092Z,63.79
2018-03-21T16:27:11.397Z,64.96
2018-03-21T16:30:14.678Z,65.63
2018-03-21T16:33:17.965Z,66.42
2018-03-21T16:36:21.261Z,67.18
2018-03-21T16:39:25.491Z,66.86
2018-03-21T16:42:29.910Z,66.81
2018-03-21T16:45:34.037Z,66.02
2018-03-21T16:48:38.341Z,67.08
2018-03-21T16:51:42.419Z,67.76
2018-03-21T16:54:45.769Z,68.70
2018-03-21T16:57:49.072Z,69.29
2018-03-21T17:00:53.120Z,68.62
2018-03-21T17:03:56.413Z,68.61
2018-03-21T17:06:59.672Z,68.75
2018-03-21T17:10:04.197Z,68.62
2018-03-21T17:13:08.224Z,69.00
2018-03-21T17:16:11.509Z,69.00
2018-03-21T17:19:15.545Z,68.92
2018-03-21T17:22:18.829Z,69.01
2018-03-21T17:25:22.139Z,68.77
2018-03-21T17:28:25.444Z,68.98
2018-03-21T17:31:28.734Z,69.03
2018-03-21T17:34:32.024Z,69.46
2018-03-21T17:37:35.310Z,69.32
2018-03-21T17:40:39.392Z,69.32
2018-03-21T17:43:42.706Z,69.25
2018-03-21T17:46:46.482Z,69.54
2018-03-21T17:49:50.071Z,69.56
2018-03-21T17:52:53.458Z,69.61
2018-03-21T17:55:56.746Z,69.03
2018-03-21T17:59:00.043Z,68.73
2018-03-21T18:02:03.335Z,68.87
2018-03-21T18:05:07.363Z,68.35
2018-03-21T18:08:11.065Z,68.37
2018-03-21T18:11:15.103Z,68.41
2018-03-21T18:14:18.378Z,68.61
2018-03-21T18:17:22.445Z,68.98
2018-03-21T18:20:25.884Z,68.92
2018-03-21T18:23:29.161Z,69.15
2018-03-21T18:26:32.640Z,69.12
2018-03-21T18:29:37.561Z,69.25
2018-03-21T18:32:41.346Z,69.18
2018-03-21T18:35:45.535Z,69.39
2018-03-21T18:38:51.509Z,70.23
2018-03-21T18:41:55.706Z,69.69
2018-03-21T18:44:59.027Z,70.10
2018-03-21T18:48:02.694Z,70.38
2018-03-21T18:51:06.772Z,70.07
2018-03-21T18:54:10.818Z,70.34
2018-03-21T18:57:14.260Z,70.06
2018-03-21T19:00:18.419Z,70.81
2018-03-21T19:03:21.697Z,71.01
2018-03-21T19:06:25.827Z,71.63
2018-03-21T19:09:29.916Z,71.62
2018-03-21T19:12:33.208Z,71.21
2018-03-21T19:15:36.527Z,71.50
2018-03-21T19:18:40.568Z,71.63
2018-03-21T19:21:44.132Z,71.37
2018-03-21T19:24:47.408Z,71.42
2018-03-21T19:27:50.708Z,71.67
2018-03-21T19:30:53.990Z,72.08
2018-03-21T19:33:57.644Z,71.88
2018-03-21T19:37:02.021Z,71.93
2018-03-21T19:40:05.457Z,72.44
2018-03-21T19:43:08.827Z,72.03
2018-03-21T19:46:12.194Z,72.48
2018-03-21T19:49:15.561Z,72.12
2018-03-21T19:52:18.930Z,71.98
2018-03-21T19:55:22.489Z,72.12
2018-03-21T19:58:25.778Z,72.08
2018-03-21T20:01:29.111Z,72.85
2018-03-21T20:04:32.409Z,71.97
2018-03-21T20:07:36.381Z,71.53
2018-03-21T20:10:58.100Z,72.21
2018-03-21T20:14:04.852Z,72.35
2018-03-21T20:17:08.363Z,73.07
2018-03-21T20:20:11.671Z,73.25
2018-03-21T20:23:15.063Z,73.10
2018-03-21T20:26:19.103Z,72.98
2018-03-21T20:29:22.383Z,73.42
2018-03-21T20:32:25.767Z,73.66
2018-03-21T20:35:29.038Z,73.18
2018-03-21T20:38:33.079Z,73.15
2018-03-21T20:41:36.426Z,73.13
2018-03-21T20:44:39.827Z,73.19
2018-03-21T20:47:44.022Z,72.99
2018-03-21T20:50:48.727Z,73.01
2018-03-21T20:53:52.020Z,73.25
2018-03-21T20:56:56.540Z,73.50
2018-03-21T21:00:02.447Z,73.79
2018-03-21T21:03:05.765Z,73.29
2018-03-21T21:06:09.052Z,73.56
2018-03-21T21:09:12.330Z,74.02
2018-03-21T21:12:15.723Z,74.45
2018-03-21T21:15:19.135Z,74.38
2018-03-21T21:18:22.525Z,73.63
2018-03-21T21:21:26.622Z,73.85
2018-03-21T21:24:30.669Z,74.05
2018-03-21T21:27:34.056Z,74.11
2018-03-21T21:30:37.510Z,73.93
2018-03-21T21:33:42.473Z,74.52
2018-03-21T21:36:55.215Z,74.72
2018-03-21T21:39:59.341Z,74.60
2018-03-21T21:43:02.662Z,74.63
2018-03-21T21:46:05.961Z,75.10
2018-03-21T21:49:09.247Z,74.83
2018-03-21T21:52:13.252Z,75.39
2018-03-21T21:55:18.193Z,75.17
2018-03-21T21:58:23.346Z,75.27
2018-03-21T22:01:28.561Z,75.40
2018-03-21T22:04:33.313Z,75.47
2018-03-21T22:07:37.022Z,75.49
2018-03-21T22:10:40.331Z,75.40
2018-03-21T22:13:44.630Z,75.36
2018-03-21T22:16:48.665Z,75.05
2018-03-21T22:19:51.941Z,74.94
2018-03-21T22:22:56.237Z,75.08
2018-03-21T22:25:59.523Z,75.02
2018-03-21T22:29:02.893Z,74.83
2018-03-21T22:32:06.165Z,75.17
2018-03-21T22:35:10.293Z,74.92
2018-03-21T22:38:13.867Z,75.39
2018-03-21T22:41:17.460Z,75.14
2018-03-21T22:44:20.751Z,75.13
2018-03-21T22:47:24.794Z,75.72
2018-03-21T22:50:28.828Z,75.36
2018-03-21T22:53:32.395Z,75.38
2018-03-21T22:56:35.664Z,75.48
2018-03-21T22:59:38.942Z,76.10
2018-03-21T23:03:00.430Z,75.78
2018-03-21T23:06:05.152Z,76.01
2018-03-21T23:09:08.422Z,75.95
2018-03-21T23:12:11.776Z,75.67
2018-03-21T23:15:15.077Z,75.83
2018-03-21T23:18:18.349Z,75.81
2018-03-21T23:21:22.489Z,75.66
2018-03-21T23:24:25.789Z,75.95
2018-03-21T23:27:29.851Z,75.81
2018-03-21T23:30:33.371Z,75.43
2018-03-21T23:33:36.647Z,75.31
2018-03-21T23:36:39.930Z,75.17
2018-03-21T23:39:43.240Z,74.92
2018-03-21T23:42:46.603Z,74.91
2018-03-21T23:45:49.890Z,74.71
2018-03-21T23:48:53.928Z,74.90
2018-03-21T23:51:57.369Z,75.05
2018-03-21T23:55:00.658Z,74.71
2018-03-21T23:58:03.926Z,74.73
